Kinoura — 3FHE5 — position and weather

sailwx.info

Track history (hours):
 
Tides and Currents Weather Stations Pressure Air Temp Water Temp Dewpoint Dewpoint Depression Visibility Wind Speed Wind Dir Waves Ship Positions

Kinoura

Last reported at 2017-Feb-12 08:33 UTC. Time now 2017-Feb-22 13:08 UTC.
Position N 28°20' W 016°01'.
Warning: this ship's position is 10 days out of date.

Length 227 m; draft 14 m.

Type: Cargo ship. MMSI: 373041000.

Date/timePositionNaut miles runAvg speedWind from/ knotsBaromVisibWave heightAir tempDewpointWater temp
2017-Feb-12 08:33N 28°20' W 016°01'9 9.5
2017-Feb-12 07:33N 28°28' W 015°54'9 9.4
2017-Feb-12 06:33N 28°35' W 015°47'1010.0
2017-Feb-12 05:34N 28°44' W 015°42'1110.7
2017-Feb-12 04:33N 28°54' W 015°38'  
2017-Feb-06 21:23N 49°05' W 005°28'74 9.3
2017-Feb-06 13:23N 49°41' W 003°48'9 8.9
2017-Feb-06 12:22N 49°45' W 003°36'7 9.1
2017-Feb-06 11:34N 49°48' W 003°26'10 9.8
2017-Feb-06 10:34N 49°53' W 003°12'1111.1
2017-Feb-06 09:33N 49°58' W 002°57'1211.7
2017-Feb-06 08:32N 50°01' W 002°39'9210.2
2017-Feb-05 23:33N 50°25' W 000°21'1312.3
2017-Feb-05 22:31N 50°29' W 000°01'1212.4
2017-Feb-05 21:33N 50°32' E 000°17'1212.2
2017-Feb-05 20:33N 50°36' E 000°35'1211.9
2017-Feb-05 19:33N 50°42' E 000°50'1311.1
2017-Feb-05 18:22N 50°50' E 001°07'810.5
2017-Feb-05 17:33N 50°55' E 001°18'1110.7
2017-Feb-05 16:33N 51°03' E 001°30'1211.8
2017-Feb-05 15:34N 51°12' E 001°43'1312.9
2017-Feb-05 14:33N 51°22' E 001°55'1312.9
2017-Feb-05 13:34N 51°32' E 002°07'1312.6
2017-Feb-05 12:33N 51°41' E 002°22'40310.8
2017-Feb-03 23:06N 57°28' E 008°18'611.4
2017-Feb-03 22:33N 57°31' E 008°28'1211.3
2017-Feb-03 21:31N 57°36' E 008°47'6510.9
2017-Feb-03 15:32N 57°48' E 010°47'1111.0
2017-Feb-03 14:33N 57°40' E 011°02'1111.4
2017-Feb-03 13:34N 57°33' E 011°17'1110.8
2017-Feb-03 12:33N 57°24' E 011°29'1111.3
2017-Feb-03 11:33N 57°13' E 011°36'31 9.8
2017-Feb-03 08:24N 56°43' E 011°47'86 9.6
2017-Feb-02 23:30N 55°21' E 011°02'1010.3
2017-Feb-02 22:33N 55°11' E 011°03'1111.4
2017-Feb-02 21:33N 55°00' E 010°59'1212.2
2017-Feb-02 20:34N 54°49' E 010°50'9 9.2
2017-Feb-02 19:34N 54°40' E 010°49'1211.5
2017-Feb-02 18:33N 54°36' E 011°08'1212.1
2017-Feb-02 17:33N 54°31' E 011°27'1211.6
2017-Feb-02 16:34N 54°27' E 011°46'1111.3
2017-Feb-02 15:34N 54°26' E 012°05'10 9.7
2017-Feb-02 14:33N 54°34' E 012°15'8 8.4
2017-Feb-02 13:34N 54°40' E 012°26'2710.9
2017-Feb-02 11:06N 54°52' E 013°07'2210.9
2017-Feb-02 09:06N 55°01' E 013°42'  
Track history (hours):
 
Tides and Currents Weather Stations Pressure Air Temp Water Temp Dewpoint Dewpoint Depression Visibility Wind Speed Wind Dir Waves Ship Positions

Kinoura

Last reported at 2017-Feb-12 08:33 UTC. Time now 2017-Feb-22 13:08 UTC.
Position N 28°20' W 016°01'.
Warning: this ship's position is 10 days out of date.

Length 227 m; draft 14 m.

Type: Cargo ship. MMSI: 373041000.

Date/timePositionNaut miles runAvg speedWind from/ knotsBaromVisibWave heightAir tempDewpointWater temp
2017-Feb-12 08:33N 28°20' W 016°01'9 9.5
2017-Feb-12 07:33N 28°28' W 015°54'9 9.4
2017-Feb-12 06:33N 28°35' W 015°47'1010.0
2017-Feb-12 05:34N 28°44' W 015°42'1110.7
2017-Feb-12 04:33N 28°54' W 015°38'  
2017-Feb-06 21:23N 49°05' W 005°28'74 9.3
2017-Feb-06 13:23N 49°41' W 003°48'9 8.9
2017-Feb-06 12:22N 49°45' W 003°36'7 9.1
2017-Feb-06 11:34N 49°48' W 003°26'10 9.8
2017-Feb-06 10:34N 49°53' W 003°12'1111.1
2017-Feb-06 09:33N 49°58' W 002°57'1211.7
2017-Feb-06 08:32N 50°01' W 002°39'9210.2
2017-Feb-05 23:33N 50°25' W 000°21'1312.3
2017-Feb-05 22:31N 50°29' W 000°01'1212.4
2017-Feb-05 21:33N 50°32' E 000°17'1212.2
2017-Feb-05 20:33N 50°36' E 000°35'1211.9
2017-Feb-05 19:33N 50°42' E 000°50'1311.1
2017-Feb-05 18:22N 50°50' E 001°07'810.5
2017-Feb-05 17:33N 50°55' E 001°18'1110.7
2017-Feb-05 16:33N 51°03' E 001°30'1211.8
2017-Feb-05 15:34N 51°12' E 001°43'1312.9
2017-Feb-05 14:33N 51°22' E 001°55'1312.9
2017-Feb-05 13:34N 51°32' E 002°07'1312.6
2017-Feb-05 12:33N 51°41' E 002°22'40310.8
2017-Feb-03 23:06N 57°28' E 008°18'611.4
2017-Feb-03 22:33N 57°31' E 008°28'1211.3
2017-Feb-03 21:31N 57°36' E 008°47'6510.9
2017-Feb-03 15:32N 57°48' E 010°47'1111.0
2017-Feb-03 14:33N 57°40' E 011°02'1111.4
2017-Feb-03 13:34N 57°33' E 011°17'1110.8
2017-Feb-03 12:33N 57°24' E 011°29'1111.3
2017-Feb-03 11:33N 57°13' E 011°36'31 9.8
2017-Feb-03 08:24N 56°43' E 011°47'86 9.6
2017-Feb-02 23:30N 55°21' E 011°02'1010.3
2017-Feb-02 22:33N 55°11' E 011°03'1111.4
2017-Feb-02 21:33N 55°00' E 010°59'1212.2
2017-Feb-02 20:34N 54°49' E 010°50'9 9.2
2017-Feb-02 19:34N 54°40' E 010°49'1211.5
2017-Feb-02 18:33N 54°36' E 011°08'1212.1
2017-Feb-02 17:33N 54°31' E 011°27'1211.6
2017-Feb-02 16:34N 54°27' E 011°46'1111.3
2017-Feb-02 15:34N 54°26' E 012°05'10 9.7
2017-Feb-02 14:33N 54°34' E 012°15'8 8.4
2017-Feb-02 13:34N 54°40' E 012°26'2710.9
2017-Feb-02 11:06N 54°52' E 013°07'2210.9
2017-Feb-02 09:06N 55°01' E 013°42'  

Dump ship's entire track history